Time;durP1;ratioP1;P1;durP2;ratioP2;P2;SDS_P1;SDS_P2;PMS_P1;PMS_P2;Temp;Humidity;BMP_temperature;BMP_pressure;BME280_temperature;BME280_humidity;BME280_pressure;Samples;Min_cycle;Max_cycle;Signal;HPM_P1;HPM_P2
2022/11/02 00:01:43;;;;;;;6.82;1.25;;;10.60;99.90;;;9.28;90.39;100904.97;5044763;28;20048;-78
2022/11/02 00:04:09;;;;;;;9.55;1.40;;;10.60;99.90;;;9.29;90.78;100895.78;5048619;28;20036;-78
2022/11/02 00:06:35;;;;;;;5.50;1.38;;;10.60;99.90;;;9.26;90.54;100890.69;5050630;28;20025;-78
2022/11/02 00:09:01;;;;;;;12.75;2.30;;;10.60;99.90;;;9.26;90.85;100884.44;5048218;28;20033;-79
2022/11/02 00:11:27;;;;;;;6.15;1.35;;;10.60;99.90;;;9.13;92.40;100886.03;5047460;28;20043;-77
2022/11/02 00:13:52;;;;;;;7.40;1.70;;;10.50;99.90;;;8.99;94.23;100885.13;5048257;28;20048;-78
2022/11/02 00:16:21;;;;;;;9.25;1.35;;;10.40;99.90;;;8.92;94.91;100878.81;5048653;28;20056;-78
2022/11/02 00:18:54;;;;;;;10.75;1.63;;;10.30;99.90;;;8.87;95.37;100884.00;5052367;28;20025;-77
2022/11/02 00:21:23;;;;;;;7.93;1.50;;;10.20;99.90;;;8.82;95.98;100881.06;5050577;28;20029;-77
2022/11/02 00:23:49;;;;;;;15.55;1.92;;;10.20;99.90;;;8.75;96.65;100876.41;5048396;28;20033;-78
2022/11/02 00:26:16;;;;;;;7.78;1.13;;;10.10;99.90;;;8.76;96.79;100875.38;5051101;28;20033;-78
2022/11/02 00:28:42;;;;;;;7.40;2.13;;;10.10;99.90;;;8.68;97.51;100880.94;5048499;28;20118;-77
2022/11/02 00:31:08;;;;;;;6.40;1.55;;;10.10;99.90;;;8.67;97.78;100875.72;5048627;28;20071;-77
2022/11/02 00:33:33;;;;;;;5.82;1.25;;;10.00;99.90;;;8.65;98.35;100875.91;5050883;28;20032;-77
2022/11/02 00:35:59;;;;;;;9.90;1.73;;;10.00;99.90;;;8.66;97.95;100876.78;5044106;28;20032;-79
2022/11/02 00:38:25;;;;;;;6.65;1.45;;;10.00;99.90;;;8.66;98.19;100877.59;5030626;28;20397;-78
2022/11/02 00:40:51;;;;;;;9.68;1.95;;;10.00;99.90;;;8.61;98.99;100877.34;5054450;28;20040;-78
2022/11/02 00:43:16;;;;;;;8.18;1.60;;;9.90;99.90;;;8.56;99.88;100877.13;5047858;28;20143;-77
2022/11/02 00:45:42;;;;;;;9.35;1.50;;;9.90;99.90;;;8.62;99.03;100877.16;5047577;28;20029;-77
2022/11/02 00:48:09;;;;;;;8.98;1.83;;;9.90;99.90;;;8.62;98.84;100870.88;5043987;28;20028;-79
2022/11/02 00:50:34;;;;;;;9.70;1.40;;;9.90;99.90;;;8.66;98.53;100858.56;5049556;28;20033;-78
2022/11/02 00:53:00;;;;;;;7.80;1.67;;;10.00;99.90;;;8.63;98.52;100862.53;5047296;28;20107;-79
2022/11/02 00:55:27;;;;;;;9.82;1.58;;;10.00;99.90;;;8.53;99.78;100864.75;5047627;28;20100;-79
2022/11/02 00:57:58;;;;;;;7.32;1.35;;;9.90;99.90;;;8.51;99.73;100868.72;5031828;28;20134;-78
2022/11/02 01:00:24;;;;;;;5.72;1.30;;;9.90;99.90;;;8.41;100.00;100852.72;5047872;28;20028;-78
2022/11/02 01:02:49;;;;;;;6.40;1.25;;;9.80;99.90;;;8.37;100.00;100871.28;5048136;28;20100;-78
2022/11/02 01:05:15;;;;;;;7.60;1.35;;;9.70;99.90;;;8.39;100.00;100866.47;5048215;28;20048;-78
2022/11/02 01:07:41;;;;;;;7.05;1.40;;;9.70;99.90;;;8.32;100.00;100869.16;5048187;28;20048;-79
2022/11/02 01:10:09;;;;;;;8.98;2.22;;;9.70;99.90;;;8.30;100.00;100859.53;5046340;28;20029;-78
2022/11/02 01:12:38;;;;;;;12.98;1.92;;;9.60;99.90;;;8.38;100.00;100867.53;5048245;28;20116;-78
2022/11/02 01:15:06;;;;;;;9.65;1.75;;;9.60;99.90;;;8.52;99.21;100856.78;5048144;28;20028;-78
2022/11/02 01:17:33;;;;;;;8.27;1.65;;;9.70;99.90;;;8.56;99.09;100847.19;5047700;28;20029;-79
2022/11/02 01:19:58;;;;;;;6.47;1.40;;;9.80;99.90;;;8.61;98.46;100847.44;5047309;28;20658;-78
2022/11/02 01:22:24;;;;;;;11.43;1.80;;;9.80;99.90;;;8.75;96.86;100859.25;5047685;28;20032;-79
2022/11/02 01:24:50;;;;;;;8.68;1.60;;;10.00;99.90;;;8.81;96.06;100850.28;5047920;28;20052;-78
2022/11/02 01:27:16;;;;;;;8.13;1.55;;;10.10;99.90;;;8.85;96.11;100851.56;5047052;28;20094;-78
2022/11/02 01:29:42;;;;;;;9.88;1.95;;;10.10;99.90;;;8.85;96.28;100853.44;5044067;28;20232;-77
2022/11/02 01:32:08;;;;;;;9.35;2.38;;;10.20;99.90;;;9.05;94.13;100853.56;5049749;28;20548;-79
2022/11/02 01:34:34;;;;;;;9.25;1.48;;;10.30;99.90;;;9.01;94.79;100844.94;5049733;28;20017;-77
2022/11/02 01:36:59;;;;;;;8.35;1.67;;;10.30;99.90;;;8.89;95.87;100839.25;5051179;28;20064;-78
2022/11/02 01:39:25;;;;;;;8.88;1.92;;;10.30;99.90;;;8.62;99.78;100836.38;5053453;28;20033;-78
2022/11/02 01:41:52;;;;;;;9.18;1.33;;;10.10;99.90;;;8.53;100.00;100829.38;5051627;28;20031;-78
2022/11/02 01:44:36;;;;;;;9.30;1.50;;;10.00;99.90;;;8.41;100.00;100823.63;5044494;28;20484;-77
2022/11/02 01:47:12;;;;;;;7.25;1.65;;;9.80;99.90;;;8.55;100.00;100818.31;5048099;28;20083;-77
2022/11/02 01:49:42;;;;;;;11.70;1.70;;;9.90;99.90;;;8.51;100.00;100826.03;5047874;28;20041;-77
2022/11/02 01:52:17;;;;;;;10.15;1.67;;;9.90;99.90;;;8.54;100.00;100817.47;5052812;28;20033;-79
2022/11/02 01:55:00;;;;;;;5.63;1.70;;;9.90;99.90;;;8.58;100.00;100807.03;5062807;28;20025;-78
2022/11/02 01:57:30;;;;;;;11.23;1.80;;;9.90;99.90;;;8.56;100.00;100803.69;5062364;28;20051;-79
2022/11/02 02:00:10;;;;;;;11.15;1.42;;;9.90;99.90;;;8.71;100.00;100807.09;5040852;28;20024;-78
2022/11/02 02:03:09;;;;;;;13.60;1.73;;;10.00;99.90;;;8.70;100.00;100802.72;5050413;28;20135;-78
2022/11/02 02:05:44;;;;;;;8.85;1.60;;;10.00;99.90;;;8.61;100.00;100787.59;5047305;28;20033;-78
2022/11/02 02:08:15;;;;;;;9.35;1.55;;;10.00;99.90;;;8.61;100.00;100795.75;5063775;28;20028;-78
2022/11/02 02:10:40;;;;;;;9.48;1.65;;;9.90;99.90;;;8.74;100.00;100795.00;5063670;28;20031;-77
2022/11/02 02:13:07;;;;;;;8.43;1.38;;;10.00;99.90;;;8.69;100.00;100784.72;5062279;28;20021;-79
2022/11/02 02:16:05;;;;;;;12.50;1.67;;;10.00;99.90;;;8.59;100.00;100790.50;5061100;28;20024;-79
2022/11/02 02:18:49;;;;;;;5.50;1.58;;;10.00;99.90;;;8.70;100.00;100775.50;5046022;28;20032;-79
2022/11/02 02:21:41;;;;;;;9.10;2.40;;;10.00;99.90;;;8.63;100.00;100777.38;5045358;28;20508;-79
2022/11/02 02:24:43;;;;;;;10.93;1.50;;;10.00;99.90;;;8.87;100.00;100791.50;5061719;28;20515;-78
2022/11/02 02:27:26;;;;;;;9.65;1.58;;;10.10;99.90;;;9.19;97.15;100800.88;5059926;28;20048;-77
2022/11/02 02:30:06;;;;;;;7.75;1.52;;;10.30;99.90;;;9.33;95.94;100790.00;5061863;28;20024;-79
2022/11/02 02:32:56;;;;;;;11.88;1.77;;;10.50;99.90;;;9.41;94.56;100788.97;5044912;28;20097;-79
2022/11/02 02:35:44;;;;;;;9.30;1.45;;;10.70;99.90;;;9.55;93.27;100781.69;5053774;28;20037;-79
2022/11/02 02:38:56;;;;;;;8.50;1.60;;;10.80;99.90;;;9.67;92.02;100784.63;5050007;28;20036;-80
2022/11/02 02:41:39;;;;;;;13.60;2.15;;;10.90;99.90;;;9.82;89.84;100754.47;5031710;28;20036;-78
2022/11/02 02:44:12;;;;;;;7.68;1.35;;;11.00;99.90;;;9.91;89.51;100764.09;5060975;28;20104;-78
2022/11/02 02:47:03;;;;;;;7.95;1.45;;;11.20;99.90;;;9.98;89.18;100753.19;5056488;28;20048;-80
2022/11/02 02:49:42;;;;;;;11.70;1.70;;;11.30;99.90;;;10.04;87.89;100763.25;5054194;28;20037;-79
2022/11/02 02:52:11;;;;;;;6.28;1.27;;;11.30;99.90;;;10.04;88.26;100764.09;5032111;28;20033;-80
2022/11/02 02:54:45;;;;;;;8.63;1.70;;;11.30;99.90;;;10.10;87.54;100747.94;5050117;28;20041;-80
2022/11/02 02:57:17;;;;;;;8.07;1.40;;;11.40;99.90;;;10.11;87.15;100750.47;5040351;28;20044;-81
2022/11/02 02:59:49;;;;;;;7.18;1.60;;;11.40;99.90;;;10.07;87.83;100744.59;5029605;28;20118;-80
2022/11/02 03:02:31;;;;;;;9.50;1.40;;;11.40;99.90;;;10.08;87.78;100746.28;5040621;28;20094;-80
2022/11/02 03:04:57;;;;;;;;;;;11.40;99.90;;;10.19;86.15;100760.31;5041257;28;20100;-80
2022/11/02 03:07:32;;;;;;;8.88;1.95;;;11.40;99.90;;;10.25;85.99;100764.09;5029703;28;20115;-79
2022/11/02 03:10:26;;;;;;;13.77;2.22;;;11.50;99.90;;;10.26;86.68;100754.84;5034121;28;20029;-79
2022/11/02 03:13:35;;;;;;;12.95;1.58;;;11.60;99.90;;;10.25;86.85;100764.09;5035832;28;20040;-79
2022/11/02 03:16:33;;;;;;;8.40;1.73;;;11.60;99.90;;;10.20;87.48;100768.28;5039417;28;20155;-78
2022/11/02 03:19:36;;;;;;;12.07;1.55;;;11.50;99.90;;;10.26;86.65;100763.03;5038108;28;20112;-78
2022/11/02 03:22:43;;;;;;;9.95;1.92;;;11.60;99.90;;;10.24;87.23;100763.25;5042269;28;20031;-81
2022/11/02 03:25:26;;;;;;;6.85;1.40;;;11.60;99.90;;;10.16;88.65;100758.84;5028081;28;20037;-79
2022/11/02 03:28:25;;;;;;;12.57;1.73;;;11.50;99.90;;;10.21;87.97;100767.22;5051728;28;20029;-79
2022/11/02 03:31:22;;;;;;;7.10;1.27;;;11.50;99.90;;;10.16;89.26;100764.31;5048462;28;20033;-79
2022/11/02 03:34:16;;;;;;;6.68;1.75;;;11.50;99.90;;;10.10;90.06;100767.88;5035975;28;20029;-79
2022/11/02 03:36:53;;;;;;;10.13;1.60;;;11.40;99.90;;;10.04;90.80;100764.09;5018896;28;20098;-81
2022/11/02 03:39:32;;;;;;;9.00;1.65;;;11.40;99.90;;;10.00;91.59;100773.75;5039994;28;20037;-81
2022/11/02 03:42:02;;;;;;;7.47;1.40;;;11.30;99.90;;;10.06;91.35;100770.19;5044663;28;20679;-78
2022/11/02 03:44:35;;;;;;;10.93;1.80;;;11.30;99.90;;;10.06;91.60;100766.59;5035172;28;20132;-80
2022/11/02 03:47:04;;;;;;;9.38;2.05;;;11.30;99.90;;;9.90;93.57;100773.31;5038410;28;20033;-82
2022/11/02 03:49:32;;;;;;;11.77;1.55;;;11.30;99.90;;;9.89;93.80;100774.38;5039294;28;20033;-81
2022/11/02 03:52:04;;;;;;;10.52;2.38;;;11.20;99.90;;;9.90;93.58;100763.28;5041715;28;20134;-80
2022/11/02 03:54:52;;;;;;;8.10;1.85;;;11.20;99.90;;;9.95;93.60;100770.84;5041005;28;20033;-80
2022/11/02 03:57:26;;;;;;;7.30;1.48;;;11.20;99.90;;;9.90;94.31;100776.03;5055220;28;20037;-81
2022/11/02 03:59:52;;;;;;;8.05;1.85;;;11.20;99.90;;;9.91;95.16;100770.41;5048520;28;20029;-80
2022/11/02 04:02:18;;;;;;;6.45;1.35;;;11.20;99.90;;;9.91;95.39;100773.13;5057246;28;20033;-81
2022/11/02 04:04:52;;;;;;;10.27;1.60;;;11.20;99.90;;;9.90;95.66;100779.63;5043160;28;20020;-81
2022/11/02 04:08:19;;;;;;;4.78;1.30;;;11.20;99.90;;;9.98;93.99;100766.81;5050971;28;20021;-80
2022/11/02 04:10:18;;;;;;;12.18;1.70;;;11.20;99.90;;;10.01;93.55;100764.53;5048673;28;20147;-80
2022/11/02 04:15:28;;;;;;;10.73;1.77;;;11.30;99.90;;;10.02;93.62;100787.16;5055029;28;20631;-79
2022/11/02 04:20:38;;;;;;;9.48;1.52;;;11.30;99.90;;;10.04;93.50;100791.38;5049351;28;20040;-78
2022/11/02 04:26:00;;;;;;;7.13;1.15;;;11.30;99.90;;;10.14;91.99;100779.19;4996144;28;20179;-78
2022/11/02 04:28:36;;;;;;;10.93;1.60;;;11.40;99.90;;;10.17;92.32;100790.53;5049587;28;20032;-78
2022/11/02 04:31:02;;;;;;;5.97;1.23;;;11.40;99.90;;;10.09;93.28;100788.03;5046601;28;20029;-83
2022/11/02 04:33:33;;;;;;;7.82;1.58;;;11.40;99.90;;;10.04;93.58;100793.25;5048356;28;20021;-79
2022/11/02 04:36:17;;;;;;;10.88;2.28;;;11.30;99.90;;;9.96;94.54;100779.81;5046677;28;20028;-76
2022/11/02 04:38:48;;;;;;;8.65;1.60;;;11.30;99.90;;;9.98;93.82;100778.59;5049107;28;20028;-80
2022/11/02 04:41:40;;;;;;;10.20;1.73;;;11.20;99.90;;;10.11;92.50;100776.88;5041414;28;20504;-80
2022/11/02 04:44:13;;;;;;;7.63;1.40;;;11.40;99.90;;;10.17;92.02;100784.22;5049100;28;20025;-79
2022/11/02 04:46:42;;;;;;;11.30;1.65;;;11.40;99.90;;;10.18;91.50;100764.94;5039906;28;20021;-77
2022/11/02 04:49:10;;;;;;;7.43;1.98;;;11.50;99.90;;;10.22;91.14;100773.53;5061186;28;20123;-78
2022/11/02 04:51:39;;;;;;;6.82;1.42;;;11.50;99.90;;;10.27;90.81;100781.91;5047849;28;20389;-78
2022/11/02 04:54:06;;;;;;;10.40;1.67;;;11.50;99.90;;;10.30;89.90;100777.91;5030934;28;20032;-79
2022/11/02 04:56:32;;;;;;;7.20;1.50;;;11.60;99.90;;;10.29;90.25;100774.38;5039703;28;20045;-75
2022/11/02 04:59:00;;;;;;;7.63;1.70;;;11.60;99.90;;;10.21;90.94;100780.88;5043287;28;20029;-78
2022/11/02 05:01:29;;;;;;;9.70;1.60;;;11.50;99.90;;;10.18;92.05;100775.84;5047549;28;20112;-77
2022/11/02 05:03:56;;;;;;;;;;;11.50;99.90;;;10.13;92.02;100789.28;5040433;28;20111;-77
2022/11/02 05:06:24;;;;;;;11.85;2.03;;;11.50;99.90;;;10.11;91.83;100795.97;5039322;28;19924;-76
2022/11/02 05:08:51;;;;;;;8.75;1.50;;;11.40;99.90;;;10.17;91.46;100797.84;5041758;28;20060;-77
2022/11/02 05:11:17;;;;;;;6.22;1.55;;;11.40;99.90;;;10.16;91.54;100777.94;5036806;28;20036;-77
2022/11/02 05:13:44;;;;;;;9.07;1.92;;;11.40;99.90;;;10.17;91.50;100787.78;5030907;28;20146;-78
2022/11/02 05:16:15;;;;;;;9.10;1.77;;;11.50;99.90;;;10.13;91.56;100783.81;5037378;28;20032;-77
2022/11/02 05:18:43;;;;;;;7.53;1.42;;;11.40;99.90;;;10.07;92.33;100784.63;5043166;28;20059;-77
2022/11/02 05:21:11;;;;;;;9.40;1.52;;;11.40;99.90;;;10.10;92.09;100789.69;5030356;28;20037;-76
2022/11/02 05:23:37;;;;;;;6.75;1.40;;;11.40;99.90;;;10.15;91.72;100784.44;5031863;28;20025;-76
2022/11/02 05:26:08;;;;;;;9.05;1.40;;;11.40;99.90;;;10.15;91.64;100784.44;5043613;28;20494;-77
2022/11/02 05:28:35;;;;;;;9.48;1.60;;;11.50;99.90;;;10.08;92.33;100776.25;5029690;28;20519;-78
2022/11/02 05:31:03;;;;;;;7.85;1.58;;;11.40;99.90;;;10.05;92.55;100789.47;5045619;28;20048;-80
2022/11/02 05:33:32;;;;;;;8.05;1.40;;;11.40;99.90;;;9.96;93.42;100777.09;5032378;28;20471;-76
2022/11/02 05:36:04;;;;;;;8.45;1.58;;;11.30;99.90;;;9.95;94.03;100781.72;5037527;28;20481;-76
2022/11/02 05:38:45;;;;;;;7.15;1.58;;;11.30;99.90;;;9.91;93.41;100778.56;5029863;28;20030;-76
2022/11/02 05:41:23;;;;;;;11.20;1.55;;;11.30;99.90;;;9.82;94.71;100770.81;5038930;28;20187;-76
2022/11/02 05:43:53;;;;;;;8.77;1.35;;;11.20;99.90;;;9.73;95.06;100770.16;5042245;28;20118;-77
2022/11/02 05:46:21;;;;;;;6.78;1.35;;;11.10;99.90;;;9.85;94.77;100773.13;5031612;28;20036;-78
2022/11/02 05:48:47;;;;;;;10.02;1.83;;;11.20;99.90;;;9.89;94.14;100777.94;5030996;28;20025;-80
2022/11/02 05:51:13;;;;;;;8.02;1.40;;;11.20;99.90;;;9.92;94.89;100791.16;5033311;28;20045;-80
2022/11/02 05:53:39;;;;;;;4.85;1.48;;;11.30;99.90;;;10.00;94.66;100802.88;5036418;28;20032;-80
2022/11/02 05:56:08;;;;;;;12.00;1.80;;;11.30;99.90;;;10.08;93.61;100805.44;5045106;28;20505;-80
2022/11/02 05:58:35;;;;;;;8.70;1.60;;;11.40;99.90;;;10.07;93.09;100801.84;5052222;28;20607;-81
2022/11/02 06:01:03;;;;;;;10.85;1.83;;;11.40;99.90;;;10.05;93.23;100811.28;5056545;28;20035;-79
2022/11/02 06:03:30;;;;;;;8.15;1.55;;;11.40;99.90;;;9.97;94.08;100806.03;5045040;28;20167;-79
2022/11/02 06:06:09;;;;;;;8.77;1.55;;;11.30;99.90;;;9.92;94.46;100804.78;5042777;28;20033;-78
2022/11/02 06:08:37;;;;;;;8.68;1.40;;;11.30;99.90;;;9.99;93.69;100793.88;5061327;28;20029;-77
2022/11/02 06:11:11;;;;;;;7.57;1.30;;;11.30;99.90;;;9.93;94.64;100792.81;5054643;28;20043;-77
2022/11/02 06:13:38;;;;;;;9.15;1.80;;;11.30;99.90;;;9.91;94.31;100792.19;5050587;28;20036;-77
2022/11/02 06:16:08;;;;;;;5.95;1.67;;;11.20;99.90;;;9.93;94.16;100798.28;5051619;28;20044;-78
2022/11/02 06:18:35;;;;;;;11.00;2.47;;;11.20;99.90;;;9.94;94.15;100799.09;5049778;28;20093;-76
2022/11/02 06:21:01;;;;;;;7.65;1.60;;;11.30;99.90;;;9.93;94.65;100806.47;5049778;28;20040;-76
2022/11/02 06:23:28;;;;;;;6.93;1.38;;;11.20;99.90;;;9.92;94.83;100799.31;5051803;28;20036;-77
2022/11/02 06:25:56;;;;;;;12.40;1.80;;;11.20;99.90;;;9.89;95.20;100799.75;5058039;28;20033;-77
2022/11/02 06:28:22;;;;;;;7.45;1.73;;;11.20;99.90;;;9.90;95.51;100801.44;5050492;28;20115;-76
2022/11/02 06:30:49;;;;;;;7.10;1.60;;;11.20;99.90;;;9.91;95.14;100808.56;5047140;28;20120;-76
2022/11/02 06:33:16;;;;;;;10.65;2.05;;;11.20;99.90;;;10.00;94.15;100802.88;5051635;28;20029;-76
2022/11/02 06:35:51;;;;;;;8.07;1.50;;;11.30;99.90;;;10.04;93.33;100806.88;5052748;28;20033;-77
2022/11/02 06:38:17;;;;;;;10.02;1.60;;;11.30;99.90;;;10.02;93.45;100807.09;5055904;28;20571;-75
2022/11/02 06:40:56;;;;;;;8.80;1.95;;;11.30;99.90;;;10.03;93.44;100802.47;5050473;28;20036;-76
2022/11/02 06:43:23;;;;;;;10.77;2.42;;;11.30;99.90;;;10.04;93.33;100817.78;5046962;28;20036;-76
2022/11/02 06:45:49;;;;;;;5.88;1.83;;;11.30;99.90;;;10.12;92.82;100823.03;5054043;28;20064;-78
2022/11/02 06:48:15;;;;;;;9.10;1.63;;;11.40;99.90;;;10.14;92.06;100822.81;5057432;28;20607;-77
2022/11/02 06:50:40;;;;;;;9.57;1.83;;;11.40;99.90;;;10.15;92.04;100825.34;5049383;28;20035;-76
2022/11/02 06:53:06;;;;;;;9.30;1.60;;;11.40;99.90;;;10.11;92.60;100825.97;5050137;28;20043;-77
2022/11/02 06:55:32;;;;;;;5.22;1.50;;;11.40;99.90;;;10.14;92.26;100833.72;5049387;28;20033;-76
2022/11/02 06:57:57;;;;;;;11.27;1.50;;;11.40;99.90;;;10.14;92.75;100834.56;5049079;28;20090;-77
2022/11/02 07:00:24;;;;;;;9.57;2.05;;;11.40;99.90;;;10.29;90.74;100834.34;5049466;28;20033;-77
2022/11/02 07:03:06;;;;;;;6.57;1.58;;;11.50;99.90;;;10.36;90.23;100854.28;5048916;28;20048;-77
2022/11/02 07:05:33;;;;;;;9.55;1.70;;;11.60;99.90;;;10.39;89.48;100853.03;5057299;28;20033;-76
2022/11/02 07:07:58;;;;;;;8.93;1.65;;;11.70;99.90;;;10.42;89.85;100844.44;5049310;28;20507;-76
2022/11/02 07:10:25;;;;;;;8.38;1.50;;;11.70;99.90;;;10.42;89.74;100858.09;5048838;28;20162;-77
2022/11/02 07:12:56;;;;;;;10.23;1.83;;;11.70;99.90;;;10.49;89.35;100866.28;5049602;28;20017;-77
2022/11/02 07:15:24;;;;;;;10.43;1.95;;;11.80;99.90;;;10.61;88.20;100855.56;5050466;28;20496;-77
2022/11/02 07:17:51;;;;;;;10.35;1.70;;;11.90;99.90;;;10.64;87.12;100860.59;5052195;28;20029;-76
2022/11/02 07:20:17;;;;;;;8.90;1.55;;;11.90;99.90;;;10.59;87.96;100868.53;5048963;28;20033;-76
2022/11/02 07:22:56;;;;;;;9.77;1.48;;;11.90;99.90;;;10.64;87.27;100866.88;5049162;28;20118;-76
2022/11/02 07:25:23;;;;;;;7.82;1.50;;;11.90;99.90;;;10.68;87.77;100871.91;5052999;28;20416;-77
2022/11/02 07:27:49;;;;;;;8.88;1.73;;;11.90;99.90;;;10.69;87.61;100879.88;5048677;28;20475;-76
2022/11/02 07:30:15;;;;;;;6.75;1.55;;;12.00;99.90;;;10.91;86.38;100887.81;5047760;28;20064;-76
2022/11/02 07:32:45;;;;;;;8.80;1.60;;;12.10;99.90;;;11.12;85.98;100888.59;5050748;28;20028;-76
2022/11/02 07:35:14;;;;;;;7.88;1.50;;;12.30;99.90;;;11.26;84.18;100890.25;5048707;28;20037;-78
2022/11/02 07:37:40;;;;;;;10.30;1.42;;;12.50;99.90;;;11.30;84.37;100896.13;5049003;28;20064;-78
2022/11/02 07:40:09;;;;;;;10.65;2.53;;;12.60;99.90;;;11.32;84.28;100900.28;5051391;28;20037;-76
2022/11/02 07:42:35;;;;;;;7.32;1.63;;;12.60;99.90;;;11.27;83.23;100894.66;5052143;28;20028;-77
2022/11/02 07:45:03;;;;;;;9.52;1.48;;;12.60;99.90;;;11.27;83.33;100902.00;5050430;28;20036;-75
2022/11/02 07:47:29;;;;;;;8.18;1.70;;;12.60;99.90;;;11.26;83.96;100903.03;5061556;28;20039;-76
2022/11/02 07:49:57;;;;;;;9.82;2.05;;;12.50;99.90;;;11.45;82.68;100912.25;5060249;28;20024;-77
2022/11/02 07:52:23;;;;;;;6.22;1.40;;;12.70;99.90;;;11.62;81.68;100907.94;5061760;28;20043;-77
2022/11/02 07:54:49;;;;;;;9.90;2.13;;;12.80;99.90;;;11.72;80.46;100909.41;5058590;28;20032;-77
2022/11/02 07:57:15;;;;;;;8.30;1.40;;;13.00;99.90;;;11.75;80.83;100906.22;5057425;28;20102;-77
2022/11/02 07:59:41;;;;;;;9.20;2.08;;;13.10;99.90;;;11.65;80.28;100906.69;5061315;28;20044;-76
2022/11/02 08:02:12;;;;;;;6.40;1.77;;;13.00;99.90;;;11.72;80.47;100903.94;5060077;28;20024;-76
2022/11/02 08:04:38;;;;;;;8.68;1.75;;;13.00;99.90;;;11.83;79.63;100921.53;5058178;28;20041;-77
2022/11/02 08:07:03;;;;;;;12.25;1.70;;;13.10;99.90;;;11.97;78.78;100925.03;5060880;28;20020;-78
2022/11/02 08:09:29;;;;;;;8.55;1.45;;;13.20;99.90;;;12.25;79.09;100924.66;5059481;28;20309;-77
2022/11/02 08:11:56;;;;;;;6.38;1.33;;;13.40;99.90;;;12.37;77.08;100924.78;5059875;28;20040;-77
2022/11/02 08:14:22;;;;;;;7.00;1.42;;;13.60;99.90;;;12.27;75.99;100910.78;5061793;28;20033;-77
2022/11/02 08:16:51;;;;;;;7.25;1.65;;;13.60;99.90;;;12.17;77.16;100917.53;5058749;28;20040;-76
2022/11/02 08:19:17;;;;;;;6.38;1.40;;;13.50;99.90;;;12.15;77.92;100927.03;5059554;28;20515;-77
2022/11/02 08:21:43;;;;;;;9.40;1.83;;;13.40;99.90;;;12.10;78.50;100924.97;5057913;28;20064;-75
2022/11/02 08:24:09;;;;;;;7.25;2.50;;;13.40;99.90;;;12.15;78.25;100932.53;5061166;28;20048;-76
2022/11/02 08:26:34;;;;;;;8.05;1.45;;;13.40;99.90;;;12.21;76.67;100934.38;5060854;28;20078;-78
2022/11/02 08:29:02;;;;;;;7.38;1.70;;;13.40;99.90;;;12.43;75.36;100931.28;5060891;28;20112;-77
2022/11/02 08:31:27;;;;;;;8.10;2.00;;;13.60;99.90;;;12.57;75.08;100932.00;5058157;28;20039;-78
2022/11/02 08:33:53;;;;;;;7.13;1.70;;;13.80;99.90;;;12.66;75.04;100945.19;5061834;28;20028;-78
2022/11/02 08:36:19;;;;;;;9.27;1.83;;;14.00;99.90;;;12.52;73.89;100946.34;5058601;28;20032;-78
2022/11/02 08:38:45;;;;;;;6.47;1.65;;;13.80;99.90;;;12.47;75.40;100949.75;5057629;28;20055;-76
2022/11/02 08:41:10;;;;;;;6.43;1.63;;;13.80;99.90;;;12.39;73.74;100951.94;5061794;28;20029;-77
2022/11/02 08:43:36;;;;;;;7.35;1.50;;;13.70;99.90;;;12.31;75.19;100959.31;5068173;28;20111;-77
2022/11/02 08:46:02;;;;;;;7.97;1.70;;;13.70;99.90;;;12.31;75.54;100958.50;5070932;28;20032;-77
2022/11/02 08:48:28;;;;;;;8.07;1.90;;;13.60;99.90;;;12.32;75.24;100963.72;5071542;28;20040;-78
2022/11/02 08:50:55;;;;;;;8.60;1.30;;;13.60;99.90;;;12.43;74.44;100969.56;5070208;28;20037;-78
2022/11/02 08:53:20;;;;;;;6.90;1.60;;;13.70;99.90;;;12.61;73.70;100972.41;5071190;28;20029;-77
2022/11/02 08:55:46;;;;;;;7.88;1.40;;;13.80;99.90;;;12.87;71.53;100965.03;5073262;28;20028;-77
2022/11/02 08:58:12;;;;;;;9.00;2.00;;;14.10;99.90;;;12.89;70.16;100971.09;5063716;28;20059;-77
2022/11/02 09:00:38;;;;;;;9.02;1.80;;;14.20;99.90;;;12.92;70.22;100972.53;5064765;28;20033;-77
2022/11/02 09:03:13;;;;;;;6.95;1.45;;;14.20;99.90;;;12.92;70.51;100972.53;5052686;28;20032;-76
2022/11/02 09:05:45;;;;;;;6.28;1.50;;;14.20;99.90;;;13.02;69.53;100950.13;5053872;28;20052;-77
2022/11/02 09:08:19;;;;;;;9.25;1.50;;;14.30;99.90;;;13.00;69.43;100974.16;5064196;28;20044;-77
2022/11/02 09:10:50;;;;;;;6.90;1.70;;;14.30;99.90;;;13.01;70.51;100970.34;5062975;28;20505;-77
2022/11/02 09:13:23;;;;;;;5.38;1.73;;;14.40;99.90;;;12.93;71.20;100976.94;5060822;28;20540;-76
2022/11/02 09:15:52;;;;;;;7.97;1.70;;;14.20;99.90;;;12.86;71.08;100978.91;5061180;28;20035;-76
2022/11/02 09:18:19;;;;;;;7.30;1.65;;;14.20;99.90;;;12.79;71.16;100976.22;5063033;28;20024;-77
2022/11/02 09:20:46;;;;;;;9.13;2.10;;;14.10;99.90;;;12.66;72.54;100977.19;5064852;28;20063;-76
2022/11/02 09:23:12;;;;;;;5.45;1.88;;;14.00;99.90;;;12.63;71.39;100985.84;5064213;28;20071;-78
2022/11/02 09:25:38;;;;;;;7.47;1.70;;;14.00;99.90;;;12.66;71.35;100988.97;5065027;28;20064;-76
2022/11/02 09:28:03;;;;;;;10.18;2.55;;;13.90;99.90;;;12.71;69.86;100968.31;5064746;28;20021;-77
2022/11/02 09:30:29;;;;;;;7.32;1.90;;;13.90;99.90;;;12.73;69.18;100988.09;5062883;28;20036;-77
2022/11/02 09:33:05;;;;;;;7.15;1.73;;;14.00;99.90;;;12.80;68.67;100986.97;5058742;28;20024;-79
2022/11/02 09:35:35;;;;;;;7.63;1.88;;;14.00;99.90;;;12.87;67.90;100997.03;5055701;28;20154;-78
2022/11/02 09:38:02;;;;;;;9.43;1.80;;;14.10;99.90;;;12.95;65.59;100999.47;5051093;28;20021;-80
2022/11/02 09:40:47;;;;;;;10.20;1.95;;;14.20;99.90;;;13.11;65.57;101003.53;5032516;28;20452;-76
2022/11/02 09:43:41;;;;;;;12.57;1.92;;;14.30;99.90;;;13.17;65.49;100990.84;5055613;28;20029;-78
2022/11/02 09:46:19;;;;;;;7.93;1.52;;;14.50;99.90;;;13.16;65.84;101006.47;5063990;28;20036;-80
2022/11/02 09:49:11;;;;;;;;;;;14.50;99.90;;;13.08;64.12;100998.50;5063930;28;20032;-82
2022/11/02 09:51:48;;;;;;;7.05;1.60;;;14.40;99.90;;;13.15;64.37;101003.94;5053573;28;20287;-83
2022/11/02 09:54:55;;;;;;;13.77;1.95;;;14.40;99.90;;;13.28;64.02;101016.66;5062712;28;20048;-82
2022/11/02 09:57:28;;;;;;;5.80;1.40;;;14.50;99.90;;;13.47;61.42;101009.34;5068829;28;20404;-81
2022/11/02 09:59:55;;;;;;;8.50;1.25;;;14.70;99.90;;;13.74;59.02;101036.44;5070097;28;20078;-84
2022/11/02 10:02:55;;;;;;;6.43;1.67;;;14.80;99.90;;;15.28;54.43;101030.66;5066316;28;20052;-85
2022/11/02 10:05:41;;;;;;;9.15;1.70;;;15.50;99.90;;;16.41;49.25;101030.53;5062551;28;20033;-84
2022/11/02 10:08:49;;;;;;;8.50;1.42;;;16.80;95.90;;;15.35;50.34;101031.34;5060951;28;20067;-83
2022/11/02 10:11:38;;;;;;;8.25;2.08;;;16.80;94.20;;;14.92;53.79;101040.78;5063800;28;20037;-82
2022/11/02 10:14:14;;;;;;;8.68;1.73;;;16.40;95.40;;;14.61;53.13;101038.03;5063893;28;20029;-81
2022/11/02 10:16:59;;;;;;;7.32;1.27;;;16.10;95.00;;;14.47;54.34;101047.56;5053179;28;20082;-83
2022/11/02 10:19:27;;;;;;;5.55;1.33;;;15.80;95.80;;;14.68;53.07;101049.75;5059175;28;20025;-84
2022/11/02 10:21:57;;;;;;;6.70;1.30;;;15.90;95.50;;;14.20;52.88;101072.63;5054192;28;20182;-80
2022/11/02 10:24:45;;;;;;;7.22;1.40;;;15.60;94.70;;;14.56;52.91;101050.78;5058674;28;20036;-83
2022/11/02 10:27:22;;;;;;;6.10;1.17;;;15.60;95.30;;;14.74;53.49;101069.16;5057666;28;20036;-84
2022/11/02 10:29:58;;;;;;;7.75;1.58;;;15.80;95.30;;;15.27;50.80;101099.63;5052456;28;20025;-83
2022/11/02 10:32:24;;;;;;;4.47;1.15;;;16.40;94.00;;;14.86;50.85;101060.97;5058923;28;20123;-82
2022/11/02 10:34:50;;;;;;;5.05;1.30;;;16.30;93.30;;;14.62;50.28;101069.09;5059106;28;20028;-85
2022/11/02 10:37:57;;;;;;;5.25;1.00;;;16.10;92.80;;;14.76;50.17;101084.31;5068695;28;20465;-81
2022/11/02 10:41:10;;;;;;;5.35;1.50;;;16.00;92.60;;;16.36;45.79;101064.31;5055578;28;20100;-81
2022/11/02 10:43:55;;;;;;;5.97;1.30;;;16.50;92.00;;;18.40;41.07;101087.31;5051152;28;20116;-83
2022/11/02 10:46:59;;;;;;;6.90;1.25;;;18.60;84.70;;;18.68;38.92;101085.41;5053990;28;20040;-83